Whelen Springs, Arkansas
Current Conditions -  °F | °C
As of 10:56 AM on Friday 21 Nov 2014 (Local Time) from KADF Reporting Station
Light Rain Light Rain  
Wind Chill: 47°   Ceiling: 300
Heat Index: 49°   Visibility: 2mi
Dew Point: 49°   Wind: 6mph
Humidity: 100%   Direction: 40°NE
Pressure: 30.28"   Gusts: NA
Location:  33.83°N, 93.13°W
Report Text: KADF 211656Z AUTO 04005KT 2SM -RA BR OVC003 09/09 A3028 RMK AO2 T00940094 P0001 SLP269
Loading
Personal Weather Stations






























Interactive Weather Map New forecast layout! Learn more

10-Day Weather Forecast

Advertisements
Track Severe Weather on mobile